sensor_id;sensor_type;location;lat;lon;timestamp;temperature;humidity
69595;DHT22;56800;52.142;5.364;2023-02-14T00:00:47;5.80;78.50
69595;DHT22;56800;52.142;5.364;2023-02-14T00:03:14;5.70;78.40
69595;DHT22;56800;52.142;5.364;2023-02-14T00:05:41;5.70;78.40
69595;DHT22;56800;52.142;5.364;2023-02-14T00:08:07;5.70;78.40
69595;DHT22;56800;52.142;5.364;2023-02-14T00:10:34;5.70;78.60
69595;DHT22;56800;52.142;5.364;2023-02-14T00:13:01;5.60;78.60
69595;DHT22;56800;52.142;5.364;2023-02-14T00:15:28;5.60;78.70
69595;DHT22;56800;52.142;5.364;2023-02-14T00:17:56;5.60;78.70
69595;DHT22;56800;52.142;5.364;2023-02-14T00:20:26;5.60;78.70
69595;DHT22;56800;52.142;5.364;2023-02-14T00:22:53;5.60;78.90
69595;DHT22;56800;52.142;5.364;2023-02-14T00:25:20;5.60;78.90
69595;DHT22;56800;52.142;5.364;2023-02-14T00:27:46;5.50;78.90
69595;DHT22;56800;52.142;5.364;2023-02-14T00:30:13;5.50;79.00
69595;DHT22;56800;52.142;5.364;2023-02-14T00:32:41;5.50;79.10
69595;DHT22;56800;52.142;5.364;2023-02-14T00:35:09;5.50;79.10
69595;DHT22;56800;52.142;5.364;2023-02-14T00:37:36;5.50;79.10
69595;DHT22;56800;52.142;5.364;2023-02-14T00:40:04;5.50;79.10
69595;DHT22;56800;52.142;5.364;2023-02-14T00:42:31;5.50;79.10
69595;DHT22;56800;52.142;5.364;2023-02-14T00:44:58;5.40;79.00
69595;DHT22;56800;52.142;5.364;2023-02-14T00:47:24;5.40;79.90
69595;DHT22;56800;52.142;5.364;2023-02-14T00:49:51;5.40;79.30
69595;DHT22;56800;52.142;5.364;2023-02-14T00:52:18;5.50;79.30
69595;DHT22;56800;52.142;5.364;2023-02-14T00:54:44;5.40;79.30
69595;DHT22;56800;52.142;5.364;2023-02-14T00:57:11;5.40;79.30
69595;DHT22;56800;52.142;5.364;2023-02-14T00:59:38;5.40;79.40
69595;DHT22;56800;52.142;5.364;2023-02-14T01:02:04;5.40;79.30
69595;DHT22;56800;52.142;5.364;2023-02-14T01:04:31;5.30;79.20
69595;DHT22;56800;52.142;5.364;2023-02-14T01:06:58;5.30;79.10
69595;DHT22;56800;52.142;5.364;2023-02-14T01:09:25;5.30;79.10
69595;DHT22;56800;52.142;5.364;2023-02-14T01:11:51;5.20;79.10
69595;DHT22;56800;52.142;5.364;2023-02-14T01:14:18;5.20;79.10
69595;DHT22;56800;52.142;5.364;2023-02-14T01:16:45;5.20;79.10
69595;DHT22;56800;52.142;5.364;2023-02-14T01:19:12;5.10;79.20
69595;DHT22;56800;52.142;5.364;2023-02-14T01:21:38;5.10;79.20
69595;DHT22;56800;52.142;5.364;2023-02-14T01:24:06;5.00;79.10
69595;DHT22;56800;52.142;5.364;2023-02-14T01:26:34;5.00;79.10
69595;DHT22;56800;52.142;5.364;2023-02-14T01:29:01;5.00;79.20
69595;DHT22;56800;52.142;5.364;2023-02-14T01:31:30;4.90;79.20
69595;DHT22;56800;52.142;5.364;2023-02-14T01:33:58;4.90;79.20
69595;DHT22;56800;52.142;5.364;2023-02-14T01:36:31;4.80;79.30
69595;DHT22;56800;52.142;5.364;2023-02-14T01:39:00;4.80;79.30
69595;DHT22;56800;52.142;5.364;2023-02-14T01:41:30;4.70;79.30
69595;DHT22;56800;52.142;5.364;2023-02-14T01:44:49;4.70;79.40
69595;DHT22;56800;52.142;5.364;2023-02-14T01:46:52;4.70;79.40
69595;DHT22;56800;52.142;5.364;2023-02-14T01:49:32;4.60;79.40
69595;DHT22;56800;52.142;5.364;2023-02-14T01:52:10;4.60;79.40
69595;DHT22;56800;52.142;5.364;2023-02-14T01:54:41;4.60;80.10
69595;DHT22;56800;52.142;5.364;2023-02-14T01:57:12;4.50;79.20
69595;DHT22;56800;52.142;5.364;2023-02-14T01:59:44;4.50;79.40
69595;DHT22;56800;52.142;5.364;2023-02-14T02:02:12;4.40;79.30
69595;DHT22;56800;52.142;5.364;2023-02-14T02:04:42;4.40;79.40
69595;DHT22;56800;52.142;5.364;2023-02-14T02:07:18;4.30;79.30
69595;DHT22;56800;52.142;5.364;2023-02-14T02:09:50;4.30;79.40
69595;DHT22;56800;52.142;5.364;2023-02-14T02:12:19;4.30;79.40
69595;DHT22;56800;52.142;5.364;2023-02-14T02:14:46;4.30;79.40
69595;DHT22;56800;52.142;5.364;2023-02-14T02:37:33;4.00;79.50
69595;DHT22;56800;52.142;5.364;2023-02-14T02:43:10;4.00;79.60
69595;DHT22;56800;52.142;5.364;2023-02-14T02:45:56;4.00;79.50
69595;DHT22;56800;52.142;5.364;2023-02-14T02:52:07;3.90;79.50
69595;DHT22;56800;52.142;5.364;2023-02-14T02:55:03;3.90;79.60
69595;DHT22;56800;52.142;5.364;2023-02-14T02:57:35;3.80;79.50
69595;DHT22;56800;52.142;5.364;2023-02-14T03:00:05;3.70;79.50
69595;DHT22;56800;52.142;5.364;2023-02-14T03:02:48;3.70;79.70
69595;DHT22;56800;52.142;5.364;2023-02-14T03:05:35;3.60;79.80
69595;DHT22;56800;52.142;5.364;2023-02-14T03:08:04;3.60;80.00
69595;DHT22;56800;52.142;5.364;2023-02-14T03:10:34;3.60;80.00
69595;DHT22;56800;52.142;5.364;2023-02-14T03:22:07;3.60;80.40
69595;DHT22;56800;52.142;5.364;2023-02-14T03:27:20;3.50;80.50
69595;DHT22;56800;52.142;5.364;2023-02-14T03:30:06;3.50;80.60
69595;DHT22;56800;52.142;5.364;2023-02-14T03:32:43;3.50;80.70
69595;DHT22;56800;52.142;5.364;2023-02-14T03:35:24;3.50;80.80
69595;DHT22;56800;52.142;5.364;2023-02-14T03:38:07;3.50;80.70
69595;DHT22;56800;52.142;5.364;2023-02-14T03:40:48;3.50;80.70
69595;DHT22;56800;52.142;5.364;2023-02-14T03:43:36;3.40;80.50
69595;DHT22;56800;52.142;5.364;2023-02-14T03:46:19;3.40;80.50
69595;DHT22;56800;52.142;5.364;2023-02-14T03:48:47;3.40;80.60
69595;DHT22;56800;52.142;5.364;2023-02-14T03:51:17;3.40;80.50
69595;DHT22;56800;52.142;5.364;2023-02-14T03:53:48;3.30;80.50
69595;DHT22;56800;52.142;5.364;2023-02-14T03:56:31;3.30;80.40
69595;DHT22;56800;52.142;5.364;2023-02-14T03:59:06;3.30;80.50
69595;DHT22;56800;52.142;5.364;2023-02-14T04:02:24;3.30;80.50
69595;DHT22;56800;52.142;5.364;2023-02-14T04:04:26;3.20;80.40
69595;DHT22;56800;52.142;5.364;2023-02-14T04:06:54;3.20;80.40
69595;DHT22;56800;52.142;5.364;2023-02-14T04:09:20;3.20;80.40
69595;DHT22;56800;52.142;5.364;2023-02-14T04:11:47;3.10;80.50
69595;DHT22;56800;52.142;5.364;2023-02-14T04:14:16;3.10;80.50
69595;DHT22;56800;52.142;5.364;2023-02-14T04:16:43;3.10;80.50
69595;DHT22;56800;52.142;5.364;2023-02-14T04:19:28;3.10;80.60
69595;DHT22;56800;52.142;5.364;2023-02-14T04:21:55;3.10;80.60
69595;DHT22;56800;52.142;5.364;2023-02-14T04:24:21;3.10;80.50
69595;DHT22;56800;52.142;5.364;2023-02-14T04:26:48;3.00;80.40
69595;DHT22;56800;52.142;5.364;2023-02-14T04:29:49;3.00;80.40
69595;DHT22;56800;52.142;5.364;2023-02-14T04:32:18;3.00;80.50
69595;DHT22;56800;52.142;5.364;2023-02-14T04:34:46;2.90;80.40
69595;DHT22;56800;52.142;5.364;2023-02-14T04:37:14;2.90;80.50
69595;DHT22;56800;52.142;5.364;2023-02-14T04:39:41;2.90;80.50
69595;DHT22;56800;52.142;5.364;2023-02-14T04:42:08;2.90;80.50
69595;DHT22;56800;52.142;5.364;2023-02-14T04:44:35;2.90;80.50
69595;DHT22;56800;52.142;5.364;2023-02-14T04:47:03;2.90;80.50
69595;DHT22;56800;52.142;5.364;2023-02-14T04:49:30;2.80;80.40
69595;DHT22;56800;52.142;5.364;2023-02-14T04:51:57;2.80;80.40
69595;DHT22;56800;52.142;5.364;2023-02-14T04:54:24;2.80;80.70
69595;DHT22;56800;52.142;5.364;2023-02-14T04:56:51;2.80;81.00
69595;DHT22;56800;52.142;5.364;2023-02-14T04:59:17;2.80;80.90
69595;DHT22;56800;52.142;5.364;2023-02-14T05:01:44;2.80;81.00
69595;DHT22;56800;52.142;5.364;2023-02-14T05:04:11;2.80;81.00
69595;DHT22;56800;52.142;5.364;2023-02-14T05:06:37;2.80;80.90
69595;DHT22;56800;52.142;5.364;2023-02-14T05:09:04;2.80;81.00
69595;DHT22;56800;52.142;5.364;2023-02-14T05:11:31;2.80;80.80
69595;DHT22;56800;52.142;5.364;2023-02-14T05:13:58;2.70;80.90
69595;DHT22;56800;52.142;5.364;2023-02-14T05:16:24;2.80;80.90
69595;DHT22;56800;52.142;5.364;2023-02-14T05:18:51;2.80;81.00
69595;DHT22;56800;52.142;5.364;2023-02-14T05:21:18;2.70;80.90
69595;DHT22;56800;52.142;5.364;2023-02-14T05:23:45;2.70;80.80
69595;DHT22;56800;52.142;5.364;2023-02-14T05:26:12;2.70;80.90
69595;DHT22;56800;52.142;5.364;2023-02-14T05:28:38;2.70;81.00
69595;DHT22;56800;52.142;5.364;2023-02-14T05:31:07;2.70;80.90
69595;DHT22;56800;52.142;5.364;2023-02-14T05:33:34;2.70;80.90
69595;DHT22;56800;52.142;5.364;2023-02-14T05:36:01;2.70;80.90
69595;DHT22;56800;52.142;5.364;2023-02-14T05:38:29;2.70;80.80
69595;DHT22;56800;52.142;5.364;2023-02-14T05:40:56;2.60;80.80
69595;DHT22;56800;52.142;5.364;2023-02-14T05:43:23;2.60;81.50
69595;DHT22;56800;52.142;5.364;2023-02-14T05:45:49;2.60;80.70
69595;DHT22;56800;52.142;5.364;2023-02-14T05:48:16;2.70;80.70
69595;DHT22;56800;52.142;5.364;2023-02-14T05:50:43;2.60;80.60
69595;DHT22;56800;52.142;5.364;2023-02-14T05:53:11;2.60;80.60
69595;DHT22;56800;52.142;5.364;2023-02-14T05:55:38;2.60;80.70
69595;DHT22;56800;52.142;5.364;2023-02-14T05:58:06;2.60;80.70
69595;DHT22;56800;52.142;5.364;2023-02-14T06:00:32;2.70;80.80
69595;DHT22;56800;52.142;5.364;2023-02-14T06:02:59;2.60;80.70
69595;DHT22;56800;52.142;5.364;2023-02-14T06:05:26;2.60;80.70
69595;DHT22;56800;52.142;5.364;2023-02-14T06:07:53;2.60;80.60
69595;DHT22;56800;52.142;5.364;2023-02-14T06:10:21;2.70;80.60
69595;DHT22;56800;52.142;5.364;2023-02-14T06:12:50;2.60;80.50
69595;DHT22;56800;52.142;5.364;2023-02-14T06:15:17;2.60;80.50
69595;DHT22;56800;52.142;5.364;2023-02-14T06:17:44;2.60;80.60
69595;DHT22;56800;52.142;5.364;2023-02-14T06:20:12;2.60;80.60
69595;DHT22;56800;52.142;5.364;2023-02-14T06:22:39;2.60;80.60
69595;DHT22;56800;52.142;5.364;2023-02-14T06:25:05;2.50;80.40
69595;DHT22;56800;52.142;5.364;2023-02-14T06:27:33;2.50;80.50
69595;DHT22;56800;52.142;5.364;2023-02-14T06:29:59;2.40;80.60
69595;DHT22;56800;52.142;5.364;2023-02-14T06:32:26;2.40;80.60
69595;DHT22;56800;52.142;5.364;2023-02-14T06:34:53;2.40;80.60
69595;DHT22;56800;52.142;5.364;2023-02-14T06:37:19;2.40;80.60
69595;DHT22;56800;52.142;5.364;2023-02-14T06:39:46;2.40;80.60
69595;DHT22;56800;52.142;5.364;2023-02-14T06:42:13;2.40;80.70
69595;DHT22;56800;52.142;5.364;2023-02-14T06:44:39;2.40;80.70
69595;DHT22;56800;52.142;5.364;2023-02-14T06:47:06;2.40;80.80
69595;DHT22;56800;52.142;5.364;2023-02-14T06:49:33;2.40;80.80
69595;DHT22;56800;52.142;5.364;2023-02-14T06:52:00;2.40;80.80
69595;DHT22;56800;52.142;5.364;2023-02-14T06:54:27;2.40;80.80
69595;DHT22;56800;52.142;5.364;2023-02-14T06:56:54;2.40;80.80
69595;DHT22;56800;52.142;5.364;2023-02-14T06:59:20;2.40;80.80
69595;DHT22;56800;52.142;5.364;2023-02-14T07:01:47;2.40;80.80
69595;DHT22;56800;52.142;5.364;2023-02-14T07:04:14;2.40;80.70
69595;DHT22;56800;52.142;5.364;2023-02-14T07:06:41;2.40;80.70
69595;DHT22;56800;52.142;5.364;2023-02-14T07:09:07;2.40;80.70
69595;DHT22;56800;52.142;5.364;2023-02-14T07:11:34;2.40;80.70
69595;DHT22;56800;52.142;5.364;2023-02-14T07:14:01;2.40;80.70
69595;DHT22;56800;52.142;5.364;2023-02-14T07:16:27;2.40;80.80
69595;DHT22;56800;52.142;5.364;2023-02-14T07:18:54;2.40;80.80
69595;DHT22;56800;52.142;5.364;2023-02-14T07:21:20;2.30;80.70
69595;DHT22;56800;52.142;5.364;2023-02-14T07:23:47;2.30;80.70
69595;DHT22;56800;52.142;5.364;2023-02-14T07:26:15;2.30;80.70
69595;DHT22;56800;52.142;5.364;2023-02-14T07:28:47;2.30;81.50
69595;DHT22;56800;52.142;5.364;2023-02-14T07:31:17;2.30;80.90
69595;DHT22;56800;52.142;5.364;2023-02-14T07:33:45;2.30;80.80
69595;DHT22;56800;52.142;5.364;2023-02-14T07:36:12;2.30;80.90
69595;DHT22;56800;52.142;5.364;2023-02-14T07:38:38;2.30;80.90
69595;DHT22;56800;52.142;5.364;2023-02-14T07:41:05;2.30;80.90
69595;DHT22;56800;52.142;5.364;2023-02-14T07:43:32;2.30;81.00
69595;DHT22;56800;52.142;5.364;2023-02-14T07:46:01;2.40;81.10
69595;DHT22;56800;52.142;5.364;2023-02-14T07:48:28;2.40;81.20
69595;DHT22;56800;52.142;5.364;2023-02-14T07:50:59;2.40;81.30
69595;DHT22;56800;52.142;5.364;2023-02-14T07:53:26;2.40;81.30
69595;DHT22;56800;52.142;5.364;2023-02-14T07:55:53;2.50;81.30
69595;DHT22;56800;52.142;5.364;2023-02-14T07:58:19;2.50;81.40
69595;DHT22;56800;52.142;5.364;2023-02-14T08:00:46;2.50;81.30
69595;DHT22;56800;52.142;5.364;2023-02-14T08:03:13;2.50;81.30
69595;DHT22;56800;52.142;5.364;2023-02-14T08:05:40;2.60;81.40
69595;DHT22;56800;52.142;5.364;2023-02-14T08:08:07;2.60;81.50
69595;DHT22;56800;52.142;5.364;2023-02-14T08:10:34;2.70;81.50
69595;DHT22;56800;52.142;5.364;2023-02-14T08:13:00;2.70;81.50
69595;DHT22;56800;52.142;5.364;2023-02-14T08:15:33;2.80;81.60
69595;DHT22;56800;52.142;5.364;2023-02-14T08:18:20;2.90;81.60
69595;DHT22;56800;52.142;5.364;2023-02-14T08:20:49;2.90;81.70
69595;DHT22;56800;52.142;5.364;2023-02-14T08:23:17;3.00;81.70
69595;DHT22;56800;52.142;5.364;2023-02-14T08:25:44;3.10;82.60
69595;DHT22;56800;52.142;5.364;2023-02-14T08:28:11;3.20;82.00
69595;DHT22;56800;52.142;5.364;2023-02-14T08:30:39;3.30;82.10
69595;DHT22;56800;52.142;5.364;2023-02-14T08:33:06;3.50;82.20
69595;DHT22;56800;52.142;5.364;2023-02-14T08:35:33;3.60;82.20
69595;DHT22;56800;52.142;5.364;2023-02-14T08:38:00;3.70;81.80
69595;DHT22;56800;52.142;5.364;2023-02-14T08:40:27;3.90;81.40
69595;DHT22;56800;52.142;5.364;2023-02-14T08:42:54;4.00;81.20
69595;DHT22;56800;52.142;5.364;2023-02-14T08:45:20;4.00;81.00
69595;DHT22;56800;52.142;5.364;2023-02-14T08:47:47;4.10;81.20
69595;DHT22;56800;52.142;5.364;2023-02-14T08:50:16;4.20;81.50
69595;DHT22;56800;52.142;5.364;2023-02-14T08:52:43;4.40;82.10
69595;DHT22;56800;52.142;5.364;2023-02-14T08:55:11;4.60;81.90
69595;DHT22;56800;52.142;5.364;2023-02-14T08:57:38;4.90;82.20
69595;DHT22;56800;52.142;5.364;2023-02-14T09:00:05;5.20;82.50
69595;DHT22;56800;52.142;5.364;2023-02-14T09:02:32;5.50;82.50
69595;DHT22;56800;52.142;5.364;2023-02-14T09:04:59;5.90;82.70
69595;DHT22;56800;52.142;5.364;2023-02-14T09:07:26;6.40;81.50
69595;DHT22;56800;52.142;5.364;2023-02-14T09:09:53;6.70;80.50
69595;DHT22;56800;52.142;5.364;2023-02-14T09:12:20;7.00;80.00
69595;DHT22;56800;52.142;5.364;2023-02-14T09:14:46;7.30;80.40
69595;DHT22;56800;52.142;5.364;2023-02-14T09:17:14;8.00;80.40
69595;DHT22;56800;52.142;5.364;2023-02-14T09:19:41;8.80;79.20
69595;DHT22;56800;52.142;5.364;2023-02-14T09:22:09;9.50;77.10
69595;DHT22;56800;52.142;5.364;2023-02-14T09:24:37;10.10;75.50
69595;DHT22;56800;52.142;5.364;2023-02-14T09:27:05;10.50;74.40
69595;DHT22;56800;52.142;5.364;2023-02-14T09:29:32;10.70;73.60
69595;DHT22;56800;52.142;5.364;2023-02-14T09:32:00;10.90;73.30
69595;DHT22;56800;52.142;5.364;2023-02-14T09:34:28;11.10;72.80
69595;DHT22;56800;52.142;5.364;2023-02-14T09:36:54;11.40;72.70
69595;DHT22;56800;52.142;5.364;2023-02-14T09:39:40;11.90;72.50
69595;DHT22;56800;52.142;5.364;2023-02-14T09:45:25;13.00;70.30
69595;DHT22;56800;52.142;5.364;2023-02-14T09:48:00;13.70;69.20
69595;DHT22;56800;52.142;5.364;2023-02-14T09:53:17;15.40;66.70
69595;DHT22;56800;52.142;5.364;2023-02-14T09:55:51;16.10;65.00
69595;DHT22;56800;52.142;5.364;2023-02-14T09:58:25;16.60;64.20
69595;DHT22;56800;52.142;5.364;2023-02-14T10:01:09;16.90;63.20
69595;DHT22;56800;52.142;5.364;2023-02-14T10:07:00;18.70;60.30
69595;DHT22;56800;52.142;5.364;2023-02-14T10:12:30;20.70;56.60
69595;DHT22;56800;52.142;5.364;2023-02-14T10:14:59;21.50;54.70
69595;DHT22;56800;52.142;5.364;2023-02-14T10:17:41;22.00;53.30
69595;DHT22;56800;52.142;5.364;2023-02-14T10:20:19;22.10;52.20
69595;DHT22;56800;52.142;5.364;2023-02-14T10:25:45;21.80;51.00
69595;DHT22;56800;52.142;5.364;2023-02-14T10:28:16;21.50;50.80
69595;DHT22;56800;52.142;5.364;2023-02-14T10:33:44;20.80;49.80
69595;DHT22;56800;52.142;5.364;2023-02-14T10:36:26;20.70;50.70
69595;DHT22;56800;52.142;5.364;2023-02-14T10:39:28;20.70;50.00
69595;DHT22;56800;52.142;5.364;2023-02-14T10:42:15;20.60;49.80
69595;DHT22;56800;52.142;5.364;2023-02-14T10:44:49;20.80;50.10
69595;DHT22;56800;52.142;5.364;2023-02-14T10:50:19;21.40;47.80
69595;DHT22;56800;52.142;5.364;2023-02-14T10:55:16;20.80;47.80
69595;DHT22;56800;52.142;5.364;2023-02-14T10:57:57;20.40;48.20
69595;DHT22;56800;52.142;5.364;2023-02-14T11:00:32;20.10;49.00
69595;DHT22;56800;52.142;5.364;2023-02-14T11:03:02;20.00;49.40
69595;DHT22;56800;52.142;5.364;2023-02-14T11:05:46;20.00;49.20
69595;DHT22;56800;52.142;5.364;2023-02-14T11:10:49;20.40;47.80
69595;DHT22;56800;52.142;5.364;2023-02-14T11:13:27;20.10;47.40
69595;DHT22;56800;52.142;5.364;2023-02-14T11:15:58;19.90;46.90
69595;DHT22;56800;52.142;5.364;2023-02-14T11:18:27;19.50;47.70
69595;DHT22;56800;52.142;5.364;2023-02-14T11:23:35;18.70;48.50
69595;DHT22;56800;52.142;5.364;2023-02-14T11:26:04;18.50;48.80
69595;DHT22;56800;52.142;5.364;2023-02-14T11:28:33;18.50;49.30
69595;DHT22;56800;52.142;5.364;2023-02-14T11:31:00;18.50;49.20
69595;DHT22;56800;52.142;5.364;2023-02-14T11:33:38;18.40;49.20
69595;DHT22;56800;52.142;5.364;2023-02-14T11:36:13;18.30;49.40
69595;DHT22;56800;52.142;5.364;2023-02-14T11:38:42;18.10;49.40
69595;DHT22;56800;52.142;5.364;2023-02-14T11:41:12;17.70;49.40
69595;DHT22;56800;52.142;5.364;2023-02-14T11:43:42;17.30;50.30
69595;DHT22;56800;52.142;5.364;2023-02-14T11:46:35;17.00;52.00
69595;DHT22;56800;52.142;5.364;2023-02-14T11:49:30;17.10;52.10
69595;DHT22;56800;52.142;5.364;2023-02-14T11:52:06;17.40;52.00
69595;DHT22;56800;52.142;5.364;2023-02-14T11:54:38;17.60;51.10
69595;DHT22;56800;52.142;5.364;2023-02-14T11:57:27;17.70;50.60
69595;DHT22;56800;52.142;5.364;2023-02-14T12:00:00;17.80;50.60
69595;DHT22;56800;52.142;5.364;2023-02-14T12:02:31;18.00;50.60
69595;DHT22;56800;52.142;5.364;2023-02-14T12:05:30;18.10;50.50
69595;DHT22;56800;52.142;5.364;2023-02-14T12:07:59;18.30;49.60
69595;DHT22;56800;52.142;5.364;2023-02-14T12:10:32;18.30;49.80
69595;DHT22;56800;52.142;5.364;2023-02-14T12:15:49;18.60;49.00
69595;DHT22;56800;52.142;5.364;2023-02-14T12:18:41;18.80;48.00
69595;DHT22;56800;52.142;5.364;2023-02-14T12:21:45;18.70;47.30
69595;DHT22;56800;52.142;5.364;2023-02-14T12:26:53;18.70;48.20
69595;DHT22;56800;52.142;5.364;2023-02-14T12:29:33;18.80;47.30
69595;DHT22;56800;52.142;5.364;2023-02-14T12:32:20;18.80;47.40
69595;DHT22;56800;52.142;5.364;2023-02-14T12:34:48;18.90;47.70
69595;DHT22;56800;52.142;5.364;2023-02-14T12:37:22;19.00;47.90
69595;DHT22;56800;52.142;5.364;2023-02-14T12:40:11;19.00;46.90
69595;DHT22;56800;52.142;5.364;2023-02-14T12:42:46;19.00;46.90
69595;DHT22;56800;52.142;5.364;2023-02-14T12:51:49;19.00;46.50
69595;DHT22;56800;52.142;5.364;2023-02-14T13:03:05;18.70;46.50
69595;DHT22;56800;52.142;5.364;2023-02-14T13:16:51;18.10;48.30
69595;DHT22;56800;52.142;5.364;2023-02-14T13:21:55;17.70;48.90
69595;DHT22;56800;52.142;5.364;2023-02-14T13:24:28;17.60;48.80
69595;DHT22;56800;52.142;5.364;2023-02-14T13:27:01;17.30;48.80
69595;DHT22;56800;52.142;5.364;2023-02-14T13:29:57;17.10;49.20
69595;DHT22;56800;52.142;5.364;2023-02-14T13:32:30;16.90;49.20
69595;DHT22;56800;52.142;5.364;2023-02-14T13:34:58;16.70;49.50
69595;DHT22;56800;52.142;5.364;2023-02-14T13:37:26;16.50;50.20
69595;DHT22;56800;52.142;5.364;2023-02-14T13:39:56;16.50;50.60
69595;DHT22;56800;52.142;5.364;2023-02-14T13:42:52;16.30;50.70
69595;DHT22;56800;52.142;5.364;2023-02-14T13:48:21;16.10;51.30
69595;DHT22;56800;52.142;5.364;2023-02-14T13:58:48;15.60;52.70
69595;DHT22;56800;52.142;5.364;2023-02-14T14:01:32;15.50;52.70
69595;DHT22;56800;52.142;5.364;2023-02-14T14:04:01;15.40;53.00
69595;DHT22;56800;52.142;5.364;2023-02-14T14:06:29;15.20;53.20
69595;DHT22;56800;52.142;5.364;2023-02-14T14:08:56;15.20;53.80
69595;DHT22;56800;52.142;5.364;2023-02-14T14:18:46;14.80;54.40
69595;DHT22;56800;52.142;5.364;2023-02-14T14:21:27;14.80;54.80
69595;DHT22;56800;52.142;5.364;2023-02-14T14:24:20;14.70;54.90
69595;DHT22;56800;52.142;5.364;2023-02-14T14:27:03;14.60;55.10
69595;DHT22;56800;52.142;5.364;2023-02-14T14:29:45;14.50;55.20
69595;DHT22;56800;52.142;5.364;2023-02-14T14:32:36;14.50;55.70
69595;DHT22;56800;52.142;5.364;2023-02-14T14:35:04;14.40;55.70
69595;DHT22;56800;52.142;5.364;2023-02-14T14:37:44;14.40;55.80
69595;DHT22;56800;52.142;5.364;2023-02-14T14:40:37;14.30;55.80
69595;DHT22;56800;52.142;5.364;2023-02-14T14:45:49;14.30;55.80
69595;DHT22;56800;52.142;5.364;2023-02-14T14:48:25;14.20;55.80
69595;DHT22;56800;52.142;5.364;2023-02-14T14:50:52;14.20;55.80
69595;DHT22;56800;52.142;5.364;2023-02-14T14:53:27;14.10;55.90
69595;DHT22;56800;52.142;5.364;2023-02-14T14:55:55;14.10;55.90
69595;DHT22;56800;52.142;5.364;2023-02-14T14:58:40;14.00;55.80
69595;DHT22;56800;52.142;5.364;2023-02-14T15:01:11;14.00;55.90
69595;DHT22;56800;52.142;5.364;2023-02-14T15:03:47;14.00;56.30
69595;DHT22;56800;52.142;5.364;2023-02-14T15:06:19;13.90;56.20
69595;DHT22;56800;52.142;5.364;2023-02-14T15:08:47;13.90;56.20
69595;DHT22;56800;52.142;5.364;2023-02-14T15:11:18;13.80;56.30
69595;DHT22;56800;52.142;5.364;2023-02-14T15:14:09;13.80;56.50
69595;DHT22;56800;52.142;5.364;2023-02-14T15:16:52;13.70;56.80
69595;DHT22;56800;52.142;5.364;2023-02-14T15:19:33;13.70;56.70
69595;DHT22;56800;52.142;5.364;2023-02-14T15:22:16;13.70;56.90
69595;DHT22;56800;52.142;5.364;2023-02-14T15:24:43;13.60;57.00
69595;DHT22;56800;52.142;5.364;2023-02-14T15:27:14;13.60;57.10
69595;DHT22;56800;52.142;5.364;2023-02-14T15:29:49;13.50;57.30
69595;DHT22;56800;52.142;5.364;2023-02-14T15:32:18;13.50;57.20
69595;DHT22;56800;52.142;5.364;2023-02-14T15:34:45;13.40;57.00
69595;DHT22;56800;52.142;5.364;2023-02-14T15:37:12;13.40;57.00
69595;DHT22;56800;52.142;5.364;2023-02-14T15:39:45;13.30;57.10
69595;DHT22;56800;52.142;5.364;2023-02-14T15:42:29;13.30;57.30
69595;DHT22;56800;52.142;5.364;2023-02-14T15:47:54;13.20;57.50
69595;DHT22;56800;52.142;5.364;2023-02-14T15:50:27;13.20;57.80
69595;DHT22;56800;52.142;5.364;2023-02-14T15:53:21;13.20;57.90
69595;DHT22;56800;52.142;5.364;2023-02-14T15:55:46;13.20;58.20
69595;DHT22;56800;52.142;5.364;2023-02-14T15:58:22;13.10;58.20
69595;DHT22;56800;52.142;5.364;2023-02-14T16:00:51;13.10;58.30
69595;DHT22;56800;52.142;5.364;2023-02-14T16:03:24;13.00;58.40
69595;DHT22;56800;52.142;5.364;2023-02-14T16:05:52;12.90;58.60
69595;DHT22;56800;52.142;5.364;2023-02-14T16:08:35;12.90;58.60
69595;DHT22;56800;52.142;5.364;2023-02-14T16:11:12;12.80;58.60
69595;DHT22;56800;52.142;5.364;2023-02-14T16:13:42;12.70;58.90
69595;DHT22;56800;52.142;5.364;2023-02-14T16:16:12;12.70;60.00
69595;DHT22;56800;52.142;5.364;2023-02-14T16:18:47;12.60;59.20
69595;DHT22;56800;52.142;5.364;2023-02-14T16:21:16;12.50;59.50
69595;DHT22;56800;52.142;5.364;2023-02-14T16:26:35;12.40;60.20
69595;DHT22;56800;52.142;5.364;2023-02-14T16:29:15;12.30;60.20
69595;DHT22;56800;52.142;5.364;2023-02-14T16:31:48;12.20;60.30
69595;DHT22;56800;52.142;5.364;2023-02-14T16:34:36;12.10;60.40
69595;DHT22;56800;52.142;5.364;2023-02-14T16:37:21;12.00;60.40
69595;DHT22;56800;52.142;5.364;2023-02-14T16:39:51;11.90;60.60
69595;DHT22;56800;52.142;5.364;2023-02-14T16:42:18;11.80;60.70
69595;DHT22;56800;52.142;5.364;2023-02-14T16:44:45;11.70;60.90
69595;DHT22;56800;52.142;5.364;2023-02-14T16:47:14;11.70;61.10
69595;DHT22;56800;52.142;5.364;2023-02-14T16:49:41;11.60;61.20
69595;DHT22;56800;52.142;5.364;2023-02-14T16:52:19;11.50;61.40
69595;DHT22;56800;52.142;5.364;2023-02-14T16:54:49;11.40;61.60
69595;DHT22;56800;52.142;5.364;2023-02-14T16:57:19;11.30;61.70
69595;DHT22;56800;52.142;5.364;2023-02-14T16:59:46;11.20;61.70
69595;DHT22;56800;52.142;5.364;2023-02-14T17:02:13;11.20;62.00
69595;DHT22;56800;52.142;5.364;2023-02-14T17:04:39;11.10;62.20
69595;DHT22;56800;52.142;5.364;2023-02-14T17:07:06;11.00;62.30
69595;DHT22;56800;52.142;5.364;2023-02-14T17:09:39;10.90;62.50
69595;DHT22;56800;52.142;5.364;2023-02-14T17:12:09;10.80;62.70
69595;DHT22;56800;52.142;5.364;2023-02-14T17:14:41;10.70;62.80
69595;DHT22;56800;52.142;5.364;2023-02-14T17:17:09;10.70;63.00
69595;DHT22;56800;52.142;5.364;2023-02-14T17:19:37;10.60;63.10
69595;DHT22;56800;52.142;5.364;2023-02-14T17:22:03;10.50;63.20
69595;DHT22;56800;52.142;5.364;2023-02-14T17:24:31;10.40;63.30
69595;DHT22;56800;52.142;5.364;2023-02-14T17:26:57;10.40;63.50
69595;DHT22;56800;52.142;5.364;2023-02-14T17:29:24;10.30;63.60
69595;DHT22;56800;52.142;5.364;2023-02-14T17:31:50;10.30;63.80
69595;DHT22;56800;52.142;5.364;2023-02-14T17:34:17;10.20;63.90
69595;DHT22;56800;52.142;5.364;2023-02-14T17:36:44;10.10;64.10
69595;DHT22;56800;52.142;5.364;2023-02-14T17:39:11;10.00;64.40
69595;DHT22;56800;52.142;5.364;2023-02-14T17:41:38;9.90;64.60
69595;DHT22;56800;52.142;5.364;2023-02-14T17:44:05;9.80;64.80
69595;DHT22;56800;52.142;5.364;2023-02-14T17:46:32;9.70;65.00
69595;DHT22;56800;52.142;5.364;2023-02-14T17:48:59;9.50;65.10
69595;DHT22;56800;52.142;5.364;2023-02-14T17:51:28;9.40;65.40
69595;DHT22;56800;52.142;5.364;2023-02-14T17:53:55;9.40;66.20
69595;DHT22;56800;52.142;5.364;2023-02-14T17:56:25;9.30;65.60
69595;DHT22;56800;52.142;5.364;2023-02-14T17:58:52;9.30;65.80
69595;DHT22;56800;52.142;5.364;2023-02-14T18:01:25;9.20;65.80
69595;DHT22;56800;52.142;5.364;2023-02-14T18:03:52;9.20;66.00
69595;DHT22;56800;52.142;5.364;2023-02-14T18:06:20;9.20;66.00
69595;DHT22;56800;52.142;5.364;2023-02-14T18:08:48;9.10;66.10
69595;DHT22;56800;52.142;5.364;2023-02-14T18:11:17;9.10;66.20
69595;DHT22;56800;52.142;5.364;2023-02-14T18:13:44;9.00;66.30